Time;durP1;ratioP1;P1;durP2;ratioP2;P2;SDS_P1;SDS_P2;PMS_P1;PMS_P2;Temp;Humidity;BMP_temperature;BMP_pressure;BME280_temperature;BME280_humidity;BME280_pressure;Samples;Min_cycle;Max_cycle;Signal;HPM_P1;HPM_P2
2023/01/22 00:02:03;;;;;;;0.70;0.70;;;;;;;5.89;65.49;100684.72;18496579;32;20522;-60
2023/01/22 00:12:08;;;;;;;0.70;0.70;;;;;;;5.67;65.58;100690.31;18496093;32;20095;-60
2023/01/22 00:22:11;;;;;;;0.68;0.68;;;;;;;5.18;66.17;100684.87;18495499;32;20169;-60
2023/01/22 00:32:16;;;;;;;0.60;0.60;;;;;;;5.77;65.37;100682.75;18496513;32;20108;-60
2023/01/22 00:42:19;;;;;;;0.62;0.62;;;;;;;5.91;64.54;100677.84;18494999;32;20115;-60
2023/01/22 00:52:24;;;;;;;0.50;0.50;;;;;;;5.66;65.49;100688.56;18494028;32;20096;-60
2023/01/22 01:02:27;;;;;;;0.70;0.70;;;;;;;5.88;64.56;100698.53;18493798;32;20162;-60
2023/01/22 01:12:31;;;;;;;0.62;0.62;;;;;;;5.68;64.99;100715.37;18502621;32;20477;-60
2023/01/22 01:22:35;;;;;;;0.77;0.77;;;;;;;6.07;64.07;100713.66;18501239;32;20093;-60
2023/01/22 01:32:39;;;;;;;0.82;0.80;;;;;;;6.03;64.94;100705.78;18502257;32;20118;-60
2023/01/22 01:42:42;;;;;;;2.05;1.95;;;;;;;5.92;65.40;100701.22;18500771;32;20115;-60
2023/01/22 01:52:47;;;;;;;0.60;0.60;;;;;;;6.04;65.58;100704.94;18500304;32;20088;-61
2023/01/22 02:02:50;;;;;;;0.65;0.65;;;;;;;6.01;65.84;100704.84;18499936;32;20113;-60
2023/01/22 02:12:58;;;;;;;0.90;0.90;;;;;;;5.88;66.58;100720.16;18499731;32;20449;-60
2023/01/22 02:23:03;;;;;;;0.50;0.50;;;;;;;5.96;66.10;100699.56;18498851;32;20102;-61
2023/01/22 02:33:06;;;;;;;0.50;0.50;;;;;;;5.81;66.84;100693.19;18498809;32;20092;-60
2023/01/22 02:43:10;;;;;;;0.60;0.60;;;;;;;5.56;67.51;100691.78;18498768;32;20137;-60
2023/01/22 02:53:13;;;;;;;1.50;1.40;;;;;;;5.52;67.66;100688.25;18498294;32;20092;-61
2023/01/22 03:03:18;;;;;;;0.60;0.60;;;;;;;5.41;68.33;100690.59;18498139;32;20109;-60
2023/01/22 03:23:45;;;;;;;0.60;0.60;;;;;;;5.80;67.62;100673.31;18497680;32;20102;-60
2023/01/22 03:33:48;;;;;;;0.60;0.60;;;;;;;5.69;68.09;100667.03;18496493;32;20136;-60
2023/01/22 03:43:52;;;;;;;0.60;0.60;;;;;;;5.62;67.76;100665.16;18496991;32;20142;-60
2023/01/22 03:53:55;;;;;;;0.60;0.60;;;;;;;5.82;67.70;100660.41;18496932;32;20096;-60
2023/01/22 04:04:00;;;;;;;0.60;0.60;;;;;;;5.60;68.77;100649.59;18497489;32;20174;-60
2023/01/22 04:14:04;;;;;;;0.60;0.60;;;;;;;5.45;69.15;100649.22;18495818;32;20150;-60
2023/01/22 04:24:09;;;;;;;0.80;0.80;;;;;;;5.64;68.37;100650.50;18495383;32;20112;-61
2023/01/22 04:34:12;;;;;;;0.50;0.50;;;;;;;5.45;68.94;100665.62;18495000;32;20189;-60
2023/01/22 04:44:17;;;;;;;0.70;0.70;;;;;;;5.58;68.92;100659.00;18495033;32;20087;-60
2023/01/22 04:54:20;;;;;;;0.70;0.70;;;;;;;5.86;68.60;100643.22;18493760;32;20089;-61
2023/01/22 05:04:24;;;;;;;0.55;0.55;;;;;;;6.08;68.05;100644.56;18493214;32;20100;-60
2023/01/22 05:14:28;;;;;;;0.50;0.50;;;;;;;5.93;68.20;100656.31;18492977;32;20395;-60
2023/01/22 05:24:32;;;;;;;0.45;0.45;;;;;;;6.22;66.90;100678.56;18491987;32;20147;-60
2023/01/22 05:34:35;;;;;;;0.70;0.70;;;;;;;6.05;67.21;100686.84;18491757;32;20487;-60
2023/01/22 05:44:40;;;;;;;0.62;0.62;;;;;;;5.96;67.53;100704.75;18491289;32;20138;-60
2023/01/22 05:54:43;;;;;;;0.60;0.60;;;;;;;6.18;67.04;100733.75;18495694;32;20093;-60
2023/01/22 06:04:47;;;;;;;0.60;0.60;;;;;;;5.97;67.45;100740.19;18501125;32;20096;-60
2023/01/22 06:14:51;;;;;;;0.60;0.60;;;;;;;6.20;66.86;100735.53;18499821;32;20155;-60
2023/01/22 06:24:56;;;;;;;0.77;0.77;;;;;;;5.69;68.10;100771.53;18499574;32;20096;-60
2023/01/22 06:34:59;;;;;;;0.62;0.62;;;;;;;6.29;66.37;100783.25;18499404;32;20088;-60
2023/01/22 06:45:05;;;;;;;0.60;0.60;;;;;;;6.40;66.10;100792.13;18498966;32;20093;-60
2023/01/22 06:55:09;;;;;;;0.62;0.62;;;;;;;6.39;66.96;100801.62;18498441;32;20441;-61
2023/01/22 07:05:14;;;;;;;0.70;0.70;;;;;;;6.60;66.74;100822.78;18498281;32;20158;-61
2023/01/22 07:15:17;;;;;;;0.50;0.50;;;;;;;6.61;66.55;100824.53;18492392;32;20127;-61
2023/01/22 07:25:22;;;;;;;1.02;1.02;;;;;;;6.59;67.17;100829.72;18433217;32;20097;-60
2023/01/22 07:35:25;;;;;;;0.60;0.60;;;;;;;6.66;67.41;100828.12;18471471;32;20373;-60
2023/01/22 07:45:30;;;;;;;0.52;0.52;;;;;;;6.68;67.12;100864.47;18465072;32;20093;-60
2023/01/22 07:55:33;;;;;;;0.60;0.60;;;;;;;6.23;69.51;100875.59;18488943;32;20104;-60
2023/01/22 08:05:38;;;;;;;0.70;0.70;;;;;;;6.46;68.05;100883.03;18429026;32;20100;-61
2023/01/22 08:15:42;;;;;;;0.57;0.57;;;;;;;6.87;66.88;100895.13;18485215;32;20141;-60
2023/01/22 08:25:47;;;;;;;0.80;0.80;;;;;;;6.63;67.74;100921.44;18488975;32;20111;-60
2023/01/22 08:35:50;;;;;;;0.60;0.60;;;;;;;6.36;68.73;100925.16;18488821;32;20092;-60
2023/01/22 08:45:55;;;;;;;1.08;1.08;;;;;;;6.13;69.79;100945.34;18493511;32;20138;-61
2023/01/22 08:55:58;;;;;;;0.90;0.85;;;;;;;6.47;68.98;100947.03;18485979;32;20351;-60
2023/01/22 09:06:02;;;;;;;0.80;0.80;;;;;;;7.21;67.34;100968.53;18487514;32;20115;-61
2023/01/22 09:16:09;;;;;;;0.50;0.50;;;;;;;7.58;65.74;100983.13;18482639;32;20096;-61
2023/01/22 09:26:14;;;;;;;0.98;0.98;;;;;;;6.91;64.75;101002.50;18485533;32;20111;-61
2023/01/22 09:36:18;;;;;;;0.62;0.62;;;;;;;7.28;64.15;101010.25;18495437;32;20084;-61
2023/01/22 09:46:27;;;;;;;0.70;0.70;;;;;;;7.62;63.51;100995.31;18496463;32;20096;-61
2023/01/22 09:56:36;;;;;;;0.70;0.70;;;;;;;8.04;63.30;100994.38;18499052;32;20097;-61
2023/01/22 10:06:42;;;;;;;0.70;0.70;;;;;;;7.89;62.62;101005.38;18495791;32;20483;-61
2023/01/22 10:16:45;;;;;;;0.70;0.70;;;;;;;7.35;63.52;101025.97;18494816;32;20084;-61
2023/01/22 10:26:53;;;;;;;0.60;0.60;;;;;;;7.96;63.56;101014.16;18494752;32;20390;-61
2023/01/22 10:37:00;;;;;;;0.70;0.70;;;;;;;8.16;62.94;101021.44;18496432;32;20089;-61
2023/01/22 10:47:26;;;;;;;0.70;0.70;;;;;;;8.25;62.78;101025.91;18497011;32;20108;-61
2023/01/22 10:57:32;;;;;;;1.17;1.17;;;;;;;8.30;63.80;101032.09;18496582;32;20089;-61
2023/01/22 11:07:37;;;;;;;0.50;0.50;;;;;;;8.35;63.53;101033.06;18494366;32;20747;-61
2023/01/22 11:17:44;;;;;;;0.65;0.65;;;;;;;8.37;62.38;101028.75;18481068;32;20369;-60
2023/01/22 11:27:58;;;;;;;1.60;1.17;;;;;;;8.25;63.60;101031.13;18430887;32;20180;-61
2023/01/22 11:38:17;;;;;;;0.80;0.80;;;;;;;8.50;63.31;101040.25;18482207;32;162653;-59
2023/01/22 11:48:33;;;;;;;0.70;0.70;;;;;;;8.05;64.80;101039.44;18489411;32;20389;-60
2023/01/22 11:58:41;;;;;;;0.80;0.80;;;;;;;8.43;63.98;101047.06;18492798;32;20100;-59
2023/01/22 12:08:53;;;;;;;0.80;0.80;;;;;;;8.62;63.65;101060.41;18492415;32;20150;-59
2023/01/22 12:19:20;;;;;;;0.88;0.88;;;;;;;8.40;63.49;101065.22;18468702;32;20093;-61
2023/01/22 12:29:28;;;;;;;0.70;0.70;;;;;;;8.18;64.46;101076.97;18491259;32;20095;-59
2023/01/22 12:39:35;;;;;;;1.15;1.15;;;;;;;8.49;64.71;101076.66;18490766;32;20100;-59
2023/01/22 12:49:47;;;;;;;1.02;0.98;;;;;;;8.51;64.88;101087.97;18492887;32;20096;-59
2023/01/22 12:59:52;;;;;;;0.70;0.70;;;;;;;8.86;64.31;101093.75;18488802;32;20084;-59
2023/01/22 13:10:21;;;;;;;0.80;0.80;;;;;;;8.88;64.54;101112.03;18497660;32;20107;-59
2023/01/22 13:20:26;;;;;;;2.30;2.15;;;;;;;8.86;64.00;101122.41;18499942;32;20100;-59
2023/01/22 13:30:31;;;;;;;0.65;0.65;;;;;;;8.87;63.83;101115.50;18500038;32;20132;-59
2023/01/22 13:40:34;;;;;;;0.62;0.62;;;;;;;8.83;63.97;101140.59;18488000;32;20109;-59
2023/01/22 13:50:56;;;;;;;0.70;0.70;;;;;;;8.92;64.00;101150.31;18496124;32;20649;-59
2023/01/22 14:00:59;;;;;;;1.30;0.85;;;;;;;9.06;63.95;101160.06;18494266;32;20140;-59
2023/01/22 14:11:04;;;;;;;0.90;0.90;;;;;;;9.08;64.19;101172.25;18497023;32;20132;-60
2023/01/22 14:21:08;;;;;;;2.28;0.88;;;;;;;9.10;63.93;101183.56;18463536;32;20101;-59
2023/01/22 14:31:13;;;;;;;1.02;1.02;;;;;;;9.14;64.05;101200.13;18441018;32;20107;-59
2023/01/22 14:41:16;;;;;;;0.93;0.88;;;;;;;9.14;64.32;101211.41;18432984;32;20098;-59
2023/01/22 14:51:21;;;;;;;0.65;0.65;;;;;;;9.26;64.13;101231.59;18452710;32;20137;-59
2023/01/22 15:01:24;;;;;;;1.52;1.35;;;;;;;9.09;63.97;101238.25;18493727;32;20142;-60
2023/01/22 15:11:29;;;;;;;1.10;1.10;;;;;;;9.14;64.30;101249.63;18465438;32;20100;-59
2023/01/22 15:21:33;;;;;;;1.37;1.27;;;;;;;9.24;65.28;101266.28;18494123;32;20764;-59
2023/01/22 15:31:38;;;;;;;1.45;1.40;;;;;;;9.04;64.76;101265.94;18490974;32;20115;-59
2023/01/22 15:41:42;;;;;;;1.33;1.23;;;;;;;8.69;66.11;101286.12;18496440;32;20084;-59
2023/01/22 15:51:47;;;;;;;1.52;1.42;;;;;;;8.74;66.00;101292.31;18494436;32;20162;-61
2023/01/22 16:01:51;;;;;;;1.05;0.93;;;;;;;8.91;65.33;101309.97;18494011;32;20073;-59
2023/01/22 16:11:56;;;;;;;1.77;1.60;;;;;;;8.85;65.54;101336.75;18493012;32;20464;-59
2023/01/22 16:21:59;;;;;;;1.12;1.12;;;;;;;8.92;65.25;101337.78;18493938;32;20096;-59
2023/01/22 16:32:05;;;;;;;1.00;1.00;;;;;;;8.74;65.40;101328.75;18490179;32;20100;-60
2023/01/22 16:42:08;;;;;;;1.40;1.30;;;;;;;8.28;66.76;101351.16;18482939;32;20092;-59
2023/01/22 16:52:13;;;;;;;1.30;1.30;;;;;;;8.60;65.50;101369.22;18492053;32;20112;-59
2023/01/22 17:02:24;;;;;;;1.50;1.15;;;;;;;8.65;65.38;101352.00;18491479;32;20132;-59
2023/01/22 17:12:29;;;;;;;2.05;1.90;;;;;;;8.66;65.37;101376.28;18491275;32;20076;-59
2023/01/22 17:22:34;;;;;;;0.93;0.93;;;;;;;8.53;65.55;101383.84;18490915;32;20119;-59
2023/01/22 17:32:40;;;;;;;2.20;2.10;;;;;;;8.49;65.71;101386.31;18490053;32;20473;-59
2023/01/22 17:42:43;;;;;;;4.32;3.90;;;;;;;8.61;65.62;101391.81;18489236;32;20108;-59
2023/01/22 17:52:48;;;;;;;1.30;1.17;;;;;;;8.62;65.67;101392.69;18495926;32;20476;-59
2023/01/22 18:02:51;;;;;;;1.50;1.33;;;;;;;8.73;65.44;101415.53;18496427;32;20099;-59
2023/01/22 18:12:56;;;;;;;0.60;0.60;;;;;;;8.71;65.61;101427.59;18459711;32;20405;-59
2023/01/22 18:22:59;;;;;;;0.60;0.60;;;;;;;8.71;65.70;101431.94;18432126;32;20093;-59
2023/01/22 18:33:17;;;;;;;2.97;2.75;;;;;;;8.76;65.59;101434.66;18434216;32;20179;-59
2023/01/22 18:43:22;;;;;;;2.37;1.65;;;;;;;8.76;65.43;101429.44;18481811;32;20088;-59
2023/01/22 18:53:29;;;;;;;0.75;0.75;;;;;;;8.73;65.61;101433.75;18493361;32;20131;-60
2023/01/22 19:03:33;;;;;;;1.62;1.52;;;;;;;8.74;65.85;101426.78;18442890;32;20108;-59
2023/01/22 19:13:38;;;;;;;0.75;0.75;;;;;;;8.77;65.90;101428.59;18432251;32;20124;-61
2023/01/22 19:23:44;;;;;;;3.20;2.97;;;;;;;8.69;65.90;101449.25;18431326;32;20445;-61
2023/01/22 19:33:52;;;;;;;1.02;1.02;;;;;;;7.07;71.73;101445.12;18433087;32;20099;-60
2023/01/22 19:43:57;;;;;;;0.70;0.70;;;;;;;7.47;70.53;101417.66;18432507;32;20137;-61
2023/01/22 19:54:04;;;;;;;4.30;1.25;;;;;;;7.75;69.12;101426.19;18431644;32;20111;-60
2023/01/22 20:04:11;;;;;;;0.52;0.52;;;;;;;8.07;67.04;101471.16;18431424;32;20155;-61
2023/01/22 20:14:16;;;;;;;2.17;1.55;;;;;;;7.93;66.59;101491.63;18430073;32;20092;-61
2023/01/22 20:24:19;;;;;;;1.45;1.35;;;;;;;6.17;72.53;101482.16;18430552;32;20405;-61
2023/01/22 20:34:24;;;;;;;3.35;3.15;;;;;;;6.02;74.25;101482.47;18430266;32;20163;-61
2023/01/22 20:44:28;;;;;;;1.67;1.60;;;;;;;7.14;68.87;101480.78;18429899;32;20081;-60
2023/01/22 20:54:34;;;;;;;0.52;0.52;;;;;;;7.29;68.90;101480.34;18429350;32;20111;-61
2023/01/22 21:04:45;;;;;;;2.12;2.03;;;;;;;7.31;69.07;101490.81;18428570;32;20100;-60
2023/01/22 21:14:52;;;;;;;0.68;0.65;;;;;;;7.58;67.39;101480.28;18491557;32;20108;-61
2023/01/22 21:24:56;;;;;;;2.05;1.77;;;;;;;7.14;68.11;101493.78;18496707;32;20128;-61
2023/01/22 21:35:01;;;;;;;4.50;1.23;;;;;;;7.30;67.19;101492.53;18500403;32;20498;-60
2023/01/22 21:55:29;;;;;;;0.40;0.40;;;;;;;7.17;66.68;101495.59;18501270;32;20361;-60
2023/01/22 22:05:32;;;;;;;0.65;0.65;;;;;;;6.99;65.41;101496.81;18500400;32;20171;-60
2023/01/22 22:15:37;;;;;;;0.73;0.73;;;;;;;6.89;64.79;101497.34;18500339;32;20104;-60
2023/01/22 22:25:41;;;;;;;0.70;0.70;;;;;;;6.37;66.75;101495.75;18498851;32;20093;-60
2023/01/22 22:35:46;;;;;;;0.60;0.60;;;;;;;6.67;65.91;101499.28;18497332;32;20115;-60
2023/01/22 22:45:49;;;;;;;0.60;0.60;;;;;;;6.52;67.23;101490.19;18499421;32;20194;-60
2023/01/22 22:55:54;;;;;;;0.60;0.60;;;;;;;6.45;68.79;101503.81;18498015;32;20088;-60
2023/01/22 23:05:57;;;;;;;0.73;0.73;;;;;;;7.11;66.41;101485.00;18497171;32;20108;-60
2023/01/22 23:16:03;;;;;;;2.22;2.12;;;;;;;7.06;66.46;101466.69;18497385;32;20339;-60
2023/01/22 23:26:11;;;;;;;1.55;1.45;;;;;;;7.27;65.44;101466.44;18497916;32;20111;-60
2023/01/22 23:36:16;;;;;;;0.60;0.60;;;;;;;7.14;65.17;101479.94;18497766;32;20100;-60
2023/01/22 23:46:21;;;;;;;0.82;0.82;;;;;;;7.08;65.10;101489.28;18496054;32;20459;-60
2023/01/22 23:56:30;;;;;;;0.60;0.60;;;;;;;7.22;64.60;101500.09;18496909;32;20112;-60
